sensor_id;sensor_type;location;lat;lon;timestamp;P1;durP1;ratioP1;P2;durP2;ratioP2
21941;SDS011;11135;54.192;15.670;2022-12-18T00:02:56;40.22;;;16.80;;
21941;SDS011;11135;54.192;15.670;2022-12-18T00:06:02;32.40;;;13.32;;
21941;SDS011;11135;54.192;15.670;2022-12-18T00:09:08;29.63;;;14.65;;
21941;SDS011;11135;54.192;15.670;2022-12-18T00:12:17;40.65;;;14.48;;
21941;SDS011;11135;54.192;15.670;2022-12-18T00:15:22;34.75;;;16.40;;
21941;SDS011;11135;54.192;15.670;2022-12-18T00:18:52;39.47;;;15.73;;
21941;SDS011;11135;54.192;15.670;2022-12-18T00:21:59;25.73;;;13.23;;
21941;SDS011;11135;54.192;15.670;2022-12-18T00:25:04;41.30;;;15.70;;
21941;SDS011;11135;54.192;15.670;2022-12-18T00:28:13;33.25;;;15.45;;
21941;SDS011;11135;54.192;15.670;2022-12-18T00:31:19;29.80;;;13.13;;
21941;SDS011;11135;54.192;15.670;2022-12-18T00:34:25;37.03;;;15.93;;
21941;SDS011;11135;54.192;15.670;2022-12-18T00:37:34;24.23;;;11.93;;
21941;SDS011;11135;54.192;15.670;2022-12-18T00:40:42;34.88;;;13.48;;
21941;SDS011;11135;54.192;15.670;2022-12-18T00:43:52;45.15;;;17.15;;
21941;SDS011;11135;54.192;15.670;2022-12-18T00:46:54;33.80;;;14.13;;
21941;SDS011;11135;54.192;15.670;2022-12-18T00:50:01;27.85;;;13.75;;
21941;SDS011;11135;54.192;15.670;2022-12-18T00:53:06;44.28;;;17.02;;
21941;SDS011;11135;54.192;15.670;2022-12-18T00:56:21;37.30;;;14.88;;
21941;SDS011;11135;54.192;15.670;2022-12-18T00:59:30;41.83;;;17.35;;
21941;SDS011;11135;54.192;15.670;2022-12-18T01:02:37;36.63;;;16.13;;
21941;SDS011;11135;54.192;15.670;2022-12-18T01:05:43;24.67;;;13.65;;
21941;SDS011;11135;54.192;15.670;2022-12-18T01:08:50;38.88;;;15.48;;
21941;SDS011;11135;54.192;15.670;2022-12-18T01:11:57;35.67;;;14.63;;
21941;SDS011;11135;54.192;15.670;2022-12-18T01:15:07;28.55;;;15.27;;
21941;SDS011;11135;54.192;15.670;2022-12-18T01:18:12;29.13;;;11.75;;
21941;SDS011;11135;54.192;15.670;2022-12-18T01:21:20;32.17;;;13.60;;
21941;SDS011;11135;54.192;15.670;2022-12-18T01:24:26;27.15;;;14.30;;
21941;SDS011;11135;54.192;15.670;2022-12-18T01:27:33;33.65;;;13.90;;
21941;SDS011;11135;54.192;15.670;2022-12-18T01:30:40;39.35;;;16.70;;
21941;SDS011;11135;54.192;15.670;2022-12-18T01:33:50;32.70;;;16.05;;
21941;SDS011;11135;54.192;15.670;2022-12-18T01:36:57;26.17;;;11.65;;
21941;SDS011;11135;54.192;15.670;2022-12-18T01:40:04;19.25;;;9.70;;
21941;SDS011;11135;54.192;15.670;2022-12-18T01:43:09;28.30;;;12.02;;
21941;SDS011;11135;54.192;15.670;2022-12-18T01:46:18;29.77;;;13.80;;
21941;SDS011;11135;54.192;15.670;2022-12-18T01:49:26;36.00;;;14.05;;
21941;SDS011;11135;54.192;15.670;2022-12-18T01:52:33;28.75;;;11.45;;
21941;SDS011;11135;54.192;15.670;2022-12-18T01:55:39;26.75;;;13.40;;
21941;SDS011;11135;54.192;15.670;2022-12-18T01:58:48;24.27;;;11.98;;
21941;SDS011;11135;54.192;15.670;2022-12-18T02:01:58;32.42;;;13.52;;
21941;SDS011;11135;54.192;15.670;2022-12-18T02:05:06;31.35;;;12.70;;
21941;SDS011;11135;54.192;15.670;2022-12-18T02:08:12;38.60;;;16.73;;
21941;SDS011;11135;54.192;15.670;2022-12-18T02:11:27;32.60;;;12.75;;
21941;SDS011;11135;54.192;15.670;2022-12-18T02:14:36;29.77;;;12.40;;
21941;SDS011;11135;54.192;15.670;2022-12-18T02:17:47;30.65;;;14.55;;
21941;SDS011;11135;54.192;15.670;2022-12-18T02:20:55;24.20;;;12.13;;
21941;SDS011;11135;54.192;15.670;2022-12-18T02:24:07;31.95;;;14.32;;
21941;SDS011;11135;54.192;15.670;2022-12-18T02:27:20;25.75;;;12.15;;
21941;SDS011;11135;54.192;15.670;2022-12-18T02:30:26;25.77;;;11.82;;
21941;SDS011;11135;54.192;15.670;2022-12-18T02:33:34;29.55;;;13.57;;
21941;SDS011;11135;54.192;15.670;2022-12-18T02:36:42;24.05;;;12.05;;
21941;SDS011;11135;54.192;15.670;2022-12-18T02:39:49;34.80;;;14.55;;
21941;SDS011;11135;54.192;15.670;2022-12-18T02:42:58;27.33;;;11.93;;
21941;SDS011;11135;54.192;15.670;2022-12-18T02:46:20;26.63;;;12.05;;
21941;SDS011;11135;54.192;15.670;2022-12-18T02:49:31;29.80;;;13.30;;
21941;SDS011;11135;54.192;15.670;2022-12-18T02:52:41;30.75;;;13.75;;
21941;SDS011;11135;54.192;15.670;2022-12-18T02:55:53;19.35;;;9.15;;
21941;SDS011;11135;54.192;15.670;2022-12-18T02:59:04;15.20;;;8.77;;
21941;SDS011;11135;54.192;15.670;2022-12-18T03:02:15;21.00;;;9.57;;
21941;SDS011;11135;54.192;15.670;2022-12-18T03:05:24;24.92;;;11.02;;
21941;SDS011;11135;54.192;15.670;2022-12-18T03:08:31;26.05;;;10.80;;
21941;SDS011;11135;54.192;15.670;2022-12-18T03:11:38;25.25;;;11.30;;
21941;SDS011;11135;54.192;15.670;2022-12-18T03:15:01;31.30;;;13.07;;
21941;SDS011;11135;54.192;15.670;2022-12-18T03:18:19;25.83;;;12.05;;
21941;SDS011;11135;54.192;15.670;2022-12-18T03:21:28;26.77;;;14.50;;
21941;SDS011;11135;54.192;15.670;2022-12-18T03:24:34;28.63;;;12.32;;
21941;SDS011;11135;54.192;15.670;2022-12-18T03:27:42;28.83;;;12.45;;
21941;SDS011;11135;54.192;15.670;2022-12-18T03:30:52;24.65;;;10.52;;
21941;SDS011;11135;54.192;15.670;2022-12-18T03:33:59;22.60;;;9.40;;
21941;SDS011;11135;54.192;15.670;2022-12-18T03:37:06;20.17;;;11.63;;
21941;SDS011;11135;54.192;15.670;2022-12-18T03:40:14;30.48;;;11.98;;
21941;SDS011;11135;54.192;15.670;2022-12-18T03:43:20;25.20;;;11.30;;
21941;SDS011;11135;54.192;15.670;2022-12-18T03:46:33;22.00;;;10.65;;
21941;SDS011;11135;54.192;15.670;2022-12-18T03:49:46;19.23;;;7.90;;
21941;SDS011;11135;54.192;15.670;2022-12-18T03:52:53;26.67;;;10.02;;
21941;SDS011;11135;54.192;15.670;2022-12-18T03:56:01;26.83;;;10.20;;
21941;SDS011;11135;54.192;15.670;2022-12-18T03:59:07;24.95;;;11.02;;
21941;SDS011;11135;54.192;15.670;2022-12-18T04:02:17;19.02;;;9.07;;
21941;SDS011;11135;54.192;15.670;2022-12-18T04:05:25;28.50;;;11.00;;
21941;SDS011;11135;54.192;15.670;2022-12-18T04:08:33;25.92;;;12.25;;
21941;SDS011;11135;54.192;15.670;2022-12-18T04:11:41;31.85;;;11.35;;
21941;SDS011;11135;54.192;15.670;2022-12-18T04:14:47;18.33;;;9.50;;
21941;SDS011;11135;54.192;15.670;2022-12-18T04:17:55;23.42;;;10.13;;
21941;SDS011;11135;54.192;15.670;2022-12-18T04:21:00;21.95;;;9.13;;
21941;SDS011;11135;54.192;15.670;2022-12-18T04:24:06;22.85;;;8.77;;
21941;SDS011;11135;54.192;15.670;2022-12-18T04:27:12;21.80;;;8.90;;
21941;SDS011;11135;54.192;15.670;2022-12-18T04:30:19;25.52;;;9.80;;
21941;SDS011;11135;54.192;15.670;2022-12-18T04:33:27;21.35;;;9.85;;
21941;SDS011;11135;54.192;15.670;2022-12-18T04:36:35;17.95;;;8.35;;
21941;SDS011;11135;54.192;15.670;2022-12-18T04:39:40;26.92;;;11.57;;
21941;SDS011;11135;54.192;15.670;2022-12-18T04:42:46;20.02;;;9.63;;
21941;SDS011;11135;54.192;15.670;2022-12-18T04:45:51;24.58;;;9.98;;
21941;SDS011;11135;54.192;15.670;2022-12-18T04:49:00;26.98;;;10.20;;
21941;SDS011;11135;54.192;15.670;2022-12-18T04:52:08;22.10;;;10.90;;
21941;SDS011;11135;54.192;15.670;2022-12-18T04:55:14;29.30;;;9.82;;
21941;SDS011;11135;54.192;15.670;2022-12-18T04:58:19;22.27;;;10.55;;
21941;SDS011;11135;54.192;15.670;2022-12-18T05:01:25;25.17;;;11.25;;
21941;SDS011;11135;54.192;15.670;2022-12-18T05:04:38;20.60;;;9.35;;
21941;SDS011;11135;54.192;15.670;2022-12-18T05:07:44;18.65;;;9.07;;
21941;SDS011;11135;54.192;15.670;2022-12-18T05:10:57;20.23;;;10.52;;
21941;SDS011;11135;54.192;15.670;2022-12-18T05:14:03;19.08;;;8.80;;
21941;SDS011;11135;54.192;15.670;2022-12-18T05:17:08;21.13;;;8.60;;
21941;SDS011;11135;54.192;15.670;2022-12-18T05:20:17;27.77;;;11.50;;
21941;SDS011;11135;54.192;15.670;2022-12-18T05:23:23;23.42;;;10.98;;
21941;SDS011;11135;54.192;15.670;2022-12-18T05:26:29;25.58;;;10.48;;
21941;SDS011;11135;54.192;15.670;2022-12-18T05:29:34;22.25;;;9.95;;
21941;SDS011;11135;54.192;15.670;2022-12-18T05:32:44;23.60;;;10.75;;
21941;SDS011;11135;54.192;15.670;2022-12-18T05:35:52;23.60;;;12.15;;
21941;SDS011;11135;54.192;15.670;2022-12-18T05:38:58;17.77;;;10.07;;
21941;SDS011;11135;54.192;15.670;2022-12-18T05:42:04;25.50;;;12.52;;
21941;SDS011;11135;54.192;15.670;2022-12-18T05:45:09;22.63;;;9.38;;
21941;SDS011;11135;54.192;15.670;2022-12-18T05:48:16;24.63;;;10.23;;
21941;SDS011;11135;54.192;15.670;2022-12-18T05:51:29;20.33;;;9.68;;
21941;SDS011;11135;54.192;15.670;2022-12-18T05:54:34;20.30;;;9.30;;
21941;SDS011;11135;54.192;15.670;2022-12-18T05:57:41;20.80;;;11.85;;
21941;SDS011;11135;54.192;15.670;2022-12-18T06:00:46;14.95;;;8.30;;
21941;SDS011;11135;54.192;15.670;2022-12-18T06:03:54;23.10;;;8.48;;
21941;SDS011;11135;54.192;15.670;2022-12-18T06:07:06;18.90;;;9.48;;
21941;SDS011;11135;54.192;15.670;2022-12-18T06:10:12;28.50;;;14.32;;
21941;SDS011;11135;54.192;15.670;2022-12-18T06:13:17;28.05;;;11.32;;
21941;SDS011;11135;54.192;15.670;2022-12-18T06:16:23;21.85;;;8.82;;
21941;SDS011;11135;54.192;15.670;2022-12-18T06:19:28;24.55;;;10.88;;
21941;SDS011;11135;54.192;15.670;2022-12-18T06:22:37;21.35;;;9.70;;
21941;SDS011;11135;54.192;15.670;2022-12-18T06:25:42;23.38;;;10.48;;
21941;SDS011;11135;54.192;15.670;2022-12-18T06:28:47;29.13;;;10.82;;
21941;SDS011;11135;54.192;15.670;2022-12-18T06:31:52;28.92;;;11.68;;
21941;SDS011;11135;54.192;15.670;2022-12-18T06:34:58;20.65;;;9.38;;
21941;SDS011;11135;54.192;15.670;2022-12-18T06:38:06;23.45;;;11.25;;
21941;SDS011;11135;54.192;15.670;2022-12-18T06:41:13;23.23;;;11.07;;
21941;SDS011;11135;54.192;15.670;2022-12-18T06:44:18;29.90;;;9.88;;
21941;SDS011;11135;54.192;15.670;2022-12-18T06:47:24;20.45;;;9.75;;
21941;SDS011;11135;54.192;15.670;2022-12-18T06:50:30;25.85;;;10.90;;
21941;SDS011;11135;54.192;15.670;2022-12-18T06:53:38;16.48;;;9.25;;
21941;SDS011;11135;54.192;15.670;2022-12-18T06:56:44;27.08;;;11.20;;
21941;SDS011;11135;54.192;15.670;2022-12-18T06:59:50;22.35;;;9.80;;
21941;SDS011;11135;54.192;15.670;2022-12-18T07:02:55;21.45;;;8.27;;
21941;SDS011;11135;54.192;15.670;2022-12-18T07:06:02;26.83;;;13.55;;
21941;SDS011;11135;54.192;15.670;2022-12-18T07:09:11;23.00;;;9.95;;
21941;SDS011;11135;54.192;15.670;2022-12-18T07:12:16;15.60;;;9.45;;
21941;SDS011;11135;54.192;15.670;2022-12-18T07:15:23;18.30;;;7.65;;
21941;SDS011;11135;54.192;15.670;2022-12-18T07:18:29;23.77;;;11.68;;
21941;SDS011;11135;54.192;15.670;2022-12-18T07:21:35;14.27;;;7.78;;
21941;SDS011;11135;54.192;15.670;2022-12-18T07:24:52;20.15;;;10.15;;
21941;SDS011;11135;54.192;15.670;2022-12-18T07:27:57;18.65;;;8.48;;
21941;SDS011;11135;54.192;15.670;2022-12-18T07:31:03;19.52;;;10.35;;
21941;SDS011;11135;54.192;15.670;2022-12-18T07:34:09;17.13;;;8.82;;
21941;SDS011;11135;54.192;15.670;2022-12-18T07:37:15;21.40;;;9.52;;
21941;SDS011;11135;54.192;15.670;2022-12-18T07:40:23;24.08;;;9.18;;
21941;SDS011;11135;54.192;15.670;2022-12-18T07:43:29;15.73;;;8.63;;
21941;SDS011;11135;54.192;15.670;2022-12-18T07:46:38;29.23;;;11.52;;
21941;SDS011;11135;54.192;15.670;2022-12-18T07:49:44;22.05;;;9.35;;
21941;SDS011;11135;54.192;15.670;2022-12-18T07:52:49;22.42;;;9.23;;
21941;SDS011;11135;54.192;15.670;2022-12-18T07:55:58;18.38;;;9.95;;
21941;SDS011;11135;54.192;15.670;2022-12-18T07:59:23;14.43;;;8.27;;
21941;SDS011;11135;54.192;15.670;2022-12-18T08:02:30;23.63;;;11.43;;
21941;SDS011;11135;54.192;15.670;2022-12-18T08:05:36;25.95;;;12.68;;
21941;SDS011;11135;54.192;15.670;2022-12-18T08:08:43;22.65;;;10.15;;
21941;SDS011;11135;54.192;15.670;2022-12-18T08:11:52;21.10;;;10.35;;
21941;SDS011;11135;54.192;15.670;2022-12-18T08:15:02;23.70;;;8.85;;
21941;SDS011;11135;54.192;15.670;2022-12-18T08:18:07;17.90;;;8.68;;
21941;SDS011;11135;54.192;15.670;2022-12-18T08:21:16;21.27;;;9.00;;
21941;SDS011;11135;54.192;15.670;2022-12-18T08:24:23;13.50;;;7.80;;
21941;SDS011;11135;54.192;15.670;2022-12-18T08:27:32;17.98;;;8.60;;
21941;SDS011;11135;54.192;15.670;2022-12-18T08:30:37;16.98;;;9.13;;
21941;SDS011;11135;54.192;15.670;2022-12-18T08:33:45;22.98;;;9.88;;
21941;SDS011;11135;54.192;15.670;2022-12-18T08:36:50;18.65;;;9.35;;
21941;SDS011;11135;54.192;15.670;2022-12-18T08:39:56;26.38;;;10.00;;
21941;SDS011;11135;54.192;15.670;2022-12-18T08:43:07;14.30;;;7.55;;
21941;SDS011;11135;54.192;15.670;2022-12-18T08:46:25;24.33;;;11.13;;
21941;SDS011;11135;54.192;15.670;2022-12-18T08:49:33;25.13;;;10.93;;
21941;SDS011;11135;54.192;15.670;2022-12-18T08:52:40;19.60;;;9.18;;
21941;SDS011;11135;54.192;15.670;2022-12-18T08:55:46;17.85;;;10.30;;
21941;SDS011;11135;54.192;15.670;2022-12-18T08:58:54;17.20;;;8.60;;
21941;SDS011;11135;54.192;15.670;2022-12-18T09:01:59;13.55;;;7.72;;
21941;SDS011;11135;54.192;15.670;2022-12-18T09:05:05;16.27;;;8.93;;
21941;SDS011;11135;54.192;15.670;2022-12-18T09:08:14;19.63;;;8.98;;
21941;SDS011;11135;54.192;15.670;2022-12-18T09:11:21;25.58;;;9.32;;
21941;SDS011;11135;54.192;15.670;2022-12-18T09:14:29;26.02;;;10.52;;
21941;SDS011;11135;54.192;15.670;2022-12-18T09:17:36;21.00;;;8.65;;
21941;SDS011;11135;54.192;15.670;2022-12-18T09:20:41;20.05;;;9.80;;
21941;SDS011;11135;54.192;15.670;2022-12-18T09:23:49;26.92;;;9.38;;
21941;SDS011;11135;54.192;15.670;2022-12-18T09:26:55;29.63;;;8.27;;
21941;SDS011;11135;54.192;15.670;2022-12-18T09:30:05;23.10;;;9.82;;
21941;SDS011;11135;54.192;15.670;2022-12-18T09:33:10;22.17;;;10.27;;
21941;SDS011;11135;54.192;15.670;2022-12-18T09:36:16;20.67;;;7.95;;
21941;SDS011;11135;54.192;15.670;2022-12-18T09:39:25;24.30;;;11.30;;
21941;SDS011;11135;54.192;15.670;2022-12-18T09:42:31;14.52;;;7.65;;
21941;SDS011;11135;54.192;15.670;2022-12-18T09:45:40;14.70;;;7.43;;
21941;SDS011;11135;54.192;15.670;2022-12-18T09:48:49;22.58;;;10.50;;
21941;SDS011;11135;54.192;15.670;2022-12-18T09:51:56;14.35;;;7.90;;
21941;SDS011;11135;54.192;15.670;2022-12-18T09:55:06;18.58;;;8.43;;
21941;SDS011;11135;54.192;15.670;2022-12-18T09:58:16;21.10;;;9.52;;
21941;SDS011;11135;54.192;15.670;2022-12-18T10:01:27;15.40;;;6.75;;
21941;SDS011;11135;54.192;15.670;2022-12-18T10:04:45;12.63;;;6.38;;
21941;SDS011;11135;54.192;15.670;2022-12-18T10:08:00;18.52;;;9.25;;
21941;SDS011;11135;54.192;15.670;2022-12-18T10:11:14;19.38;;;8.90;;
21941;SDS011;11135;54.192;15.670;2022-12-18T10:14:25;19.35;;;7.65;;
21941;SDS011;11135;54.192;15.670;2022-12-18T10:17:37;16.50;;;7.25;;
21941;SDS011;11135;54.192;15.670;2022-12-18T10:20:51;16.00;;;8.75;;
21941;SDS011;11135;54.192;15.670;2022-12-18T10:24:01;12.07;;;7.93;;
21941;SDS011;11135;54.192;15.670;2022-12-18T10:27:11;15.57;;;6.70;;
21941;SDS011;11135;54.192;15.670;2022-12-18T10:30:18;17.20;;;7.82;;
21941;SDS011;11135;54.192;15.670;2022-12-18T10:33:28;13.23;;;6.78;;
21941;SDS011;11135;54.192;15.670;2022-12-18T10:36:34;11.45;;;5.85;;
21941;SDS011;11135;54.192;15.670;2022-12-18T10:39:42;14.55;;;7.40;;
21941;SDS011;11135;54.192;15.670;2022-12-18T10:42:57;15.18;;;8.10;;
21941;SDS011;11135;54.192;15.670;2022-12-18T10:46:12;14.43;;;7.25;;
21941;SDS011;11135;54.192;15.670;2022-12-18T10:49:23;15.98;;;7.18;;
21941;SDS011;11135;54.192;15.670;2022-12-18T10:52:31;15.03;;;7.73;;
21941;SDS011;11135;54.192;15.670;2022-12-18T10:55:44;21.52;;;10.38;;
21941;SDS011;11135;54.192;15.670;2022-12-18T10:58:55;15.48;;;5.68;;
21941;SDS011;11135;54.192;15.670;2022-12-18T11:02:00;20.75;;;8.82;;
21941;SDS011;11135;54.192;15.670;2022-12-18T11:08:30;21.30;;;9.00;;
21941;SDS011;11135;54.192;15.670;2022-12-18T11:11:36;12.52;;;6.57;;
21941;SDS011;11135;54.192;15.670;2022-12-18T11:14:42;18.85;;;9.10;;
21941;SDS011;11135;54.192;15.670;2022-12-18T11:17:49;20.70;;;8.90;;
21941;SDS011;11135;54.192;15.670;2022-12-18T11:20:55;12.30;;;8.02;;
21941;SDS011;11135;54.192;15.670;2022-12-18T11:24:07;17.73;;;9.90;;
21941;SDS011;11135;54.192;15.670;2022-12-18T11:27:51;18.15;;;8.95;;
21941;SDS011;11135;54.192;15.670;2022-12-18T11:31:41;17.02;;;7.90;;
21941;SDS011;11135;54.192;15.670;2022-12-18T11:34:50;22.90;;;8.85;;
21941;SDS011;11135;54.192;15.670;2022-12-18T11:38:02;20.05;;;8.85;;
21941;SDS011;11135;54.192;15.670;2022-12-18T11:41:18;18.92;;;9.18;;
21941;SDS011;11135;54.192;15.670;2022-12-18T11:45:08;17.10;;;8.98;;
21941;SDS011;11135;54.192;15.670;2022-12-18T11:48:30;11.98;;;6.28;;
21941;SDS011;11135;54.192;15.670;2022-12-18T11:52:23;21.23;;;9.55;;
21941;SDS011;11135;54.192;15.670;2022-12-18T12:01:16;17.80;;;7.88;;
21941;SDS011;11135;54.192;15.670;2022-12-18T12:05:02;16.23;;;9.00;;
21941;SDS011;11135;54.192;15.670;2022-12-18T12:08:54;13.20;;;6.82;;
21941;SDS011;11135;54.192;15.670;2022-12-18T12:12:28;21.58;;;9.27;;
21941;SDS011;11135;54.192;15.670;2022-12-18T12:16:17;22.55;;;9.60;;
21941;SDS011;11135;54.192;15.670;2022-12-18T12:19:55;18.48;;;8.95;;
21941;SDS011;11135;54.192;15.670;2022-12-18T12:23:11;16.85;;;8.13;;
21941;SDS011;11135;54.192;15.670;2022-12-18T12:26:32;20.38;;;8.73;;
21941;SDS011;11135;54.192;15.670;2022-12-18T12:29:59;23.05;;;7.90;;
21941;SDS011;11135;54.192;15.670;2022-12-18T12:33:16;18.75;;;8.85;;
21941;SDS011;11135;54.192;15.670;2022-12-18T12:36:26;25.42;;;9.55;;
21941;SDS011;11135;54.192;15.670;2022-12-18T12:39:40;22.40;;;11.02;;
21941;SDS011;11135;54.192;15.670;2022-12-18T12:42:47;15.55;;;8.43;;
21941;SDS011;11135;54.192;15.670;2022-12-18T12:46:09;21.80;;;8.73;;
21941;SDS011;11135;54.192;15.670;2022-12-18T12:49:17;22.80;;;10.82;;
21941;SDS011;11135;54.192;15.670;2022-12-18T12:52:27;26.30;;;11.50;;
21941;SDS011;11135;54.192;15.670;2022-12-18T12:55:32;24.95;;;10.95;;
21941;SDS011;11135;54.192;15.670;2022-12-18T12:58:44;19.45;;;7.07;;
21941;SDS011;11135;54.192;15.670;2022-12-18T13:01:52;19.05;;;7.93;;
21941;SDS011;11135;54.192;15.670;2022-12-18T13:05:09;23.77;;;10.47;;
21941;SDS011;11135;54.192;15.670;2022-12-18T13:08:22;19.27;;;8.43;;
21941;SDS011;11135;54.192;15.670;2022-12-18T13:11:34;25.55;;;10.32;;
21941;SDS011;11135;54.192;15.670;2022-12-18T13:15:11;20.15;;;10.10;;
21941;SDS011;11135;54.192;15.670;2022-12-18T13:18:18;19.77;;;9.02;;
21941;SDS011;11135;54.192;15.670;2022-12-18T13:21:28;29.17;;;11.35;;
21941;SDS011;11135;54.192;15.670;2022-12-18T13:24:34;19.25;;;8.38;;
21941;SDS011;11135;54.192;15.670;2022-12-18T13:27:46;25.05;;;8.25;;
21941;SDS011;11135;54.192;15.670;2022-12-18T13:31:02;24.55;;;10.13;;
21941;SDS011;11135;54.192;15.670;2022-12-18T13:34:12;25.90;;;10.35;;
21941;SDS011;11135;54.192;15.670;2022-12-18T13:37:44;17.23;;;8.25;;
21941;SDS011;11135;54.192;15.670;2022-12-18T13:40:56;22.42;;;9.73;;
21941;SDS011;11135;54.192;15.670;2022-12-18T13:44:10;26.33;;;9.57;;
21941;SDS011;11135;54.192;15.670;2022-12-18T13:47:24;19.65;;;8.48;;
21941;SDS011;11135;54.192;15.670;2022-12-18T13:50:31;21.35;;;10.43;;
21941;SDS011;11135;54.192;15.670;2022-12-18T13:53:42;16.75;;;8.23;;
21941;SDS011;11135;54.192;15.670;2022-12-18T13:56:49;28.45;;;10.80;;
21941;SDS011;11135;54.192;15.670;2022-12-18T13:59:57;18.83;;;9.25;;
21941;SDS011;11135;54.192;15.670;2022-12-18T14:03:15;16.23;;;8.48;;
21941;SDS011;11135;54.192;15.670;2022-12-18T14:06:23;23.95;;;10.38;;
21941;SDS011;11135;54.192;15.670;2022-12-18T14:09:34;23.08;;;10.98;;
21941;SDS011;11135;54.192;15.670;2022-12-18T14:12:44;21.20;;;10.18;;
21941;SDS011;11135;54.192;15.670;2022-12-18T14:16:05;20.48;;;9.70;;
21941;SDS011;11135;54.192;15.670;2022-12-18T14:19:12;19.80;;;8.40;;
21941;SDS011;11135;54.192;15.670;2022-12-18T14:22:20;19.40;;;8.82;;
21941;SDS011;11135;54.192;15.670;2022-12-18T14:25:32;13.60;;;7.10;;
21941;SDS011;11135;54.192;15.670;2022-12-18T14:28:42;16.30;;;7.82;;
21941;SDS011;11135;54.192;15.670;2022-12-18T14:35:14;18.10;;;7.20;;
21941;SDS011;11135;54.192;15.670;2022-12-18T14:38:22;17.90;;;8.40;;
21941;SDS011;11135;54.192;15.670;2022-12-18T14:41:31;18.50;;;8.20;;
21941;SDS011;11135;54.192;15.670;2022-12-18T14:44:36;19.17;;;8.30;;
21941;SDS011;11135;54.192;15.670;2022-12-18T14:48:07;22.98;;;10.13;;
21941;SDS011;11135;54.192;15.670;2022-12-18T14:51:15;15.52;;;7.95;;
21941;SDS011;11135;54.192;15.670;2022-12-18T14:57:45;20.02;;;8.32;;
21941;SDS011;11135;54.192;15.670;2022-12-18T15:00:54;21.55;;;7.85;;
21941;SDS011;11135;54.192;15.670;2022-12-18T15:04:00;22.27;;;9.05;;
21941;SDS011;11135;54.192;15.670;2022-12-18T15:07:09;21.40;;;8.82;;
21941;SDS011;11135;54.192;15.670;2022-12-18T15:10:15;14.77;;;7.05;;
21941;SDS011;11135;54.192;15.670;2022-12-18T15:13:24;24.48;;;9.60;;
21941;SDS011;11135;54.192;15.670;2022-12-18T15:16:29;18.35;;;9.07;;
21941;SDS011;11135;54.192;15.670;2022-12-18T15:19:39;20.73;;;8.90;;
21941;SDS011;11135;54.192;15.670;2022-12-18T15:22:45;23.73;;;9.30;;
21941;SDS011;11135;54.192;15.670;2022-12-18T15:25:56;25.42;;;10.70;;
21941;SDS011;11135;54.192;15.670;2022-12-18T15:29:05;10.52;;;5.90;;
21941;SDS011;11135;54.192;15.670;2022-12-18T15:32:19;16.65;;;6.88;;
21941;SDS011;11135;54.192;15.670;2022-12-18T15:35:24;24.00;;;9.02;;
21941;SDS011;11135;54.192;15.670;2022-12-18T15:38:31;21.63;;;7.80;;
21941;SDS011;11135;54.192;15.670;2022-12-18T15:41:37;21.17;;;9.48;;
21941;SDS011;11135;54.192;15.670;2022-12-18T15:45:13;21.38;;;8.57;;
21941;SDS011;11135;54.192;15.670;2022-12-18T15:48:21;20.38;;;9.35;;
21941;SDS011;11135;54.192;15.670;2022-12-18T15:51:32;19.45;;;9.23;;
21941;SDS011;11135;54.192;15.670;2022-12-18T15:54:39;22.80;;;9.80;;
21941;SDS011;11135;54.192;15.670;2022-12-18T15:57:57;17.42;;;8.77;;
21941;SDS011;11135;54.192;15.670;2022-12-18T16:01:05;17.63;;;7.85;;
21941;SDS011;11135;54.192;15.670;2022-12-18T16:04:13;14.20;;;7.07;;
21941;SDS011;11135;54.192;15.670;2022-12-18T16:07:24;13.80;;;8.00;;
21941;SDS011;11135;54.192;15.670;2022-12-18T16:10:32;19.77;;;8.32;;
21941;SDS011;11135;54.192;15.670;2022-12-18T16:13:37;13.82;;;7.25;;
21941;SDS011;11135;54.192;15.670;2022-12-18T16:16:47;17.83;;;6.97;;
21941;SDS011;11135;54.192;15.670;2022-12-18T16:19:53;18.85;;;7.40;;
21941;SDS011;11135;54.192;15.670;2022-12-18T16:23:01;19.38;;;7.93;;
21941;SDS011;11135;54.192;15.670;2022-12-18T16:26:08;17.88;;;8.43;;
21941;SDS011;11135;54.192;15.670;2022-12-18T16:29:14;20.25;;;9.00;;
21941;SDS011;11135;54.192;15.670;2022-12-18T16:32:37;15.02;;;7.95;;
21941;SDS011;11135;54.192;15.670;2022-12-18T16:35:50;19.05;;;8.32;;
21941;SDS011;11135;54.192;15.670;2022-12-18T16:38:55;15.05;;;7.40;;
21941;SDS011;11135;54.192;15.670;2022-12-18T16:42:02;17.02;;;7.70;;
21941;SDS011;11135;54.192;15.670;2022-12-18T16:45:08;13.05;;;6.85;;
21941;SDS011;11135;54.192;15.670;2022-12-18T16:48:26;14.07;;;6.35;;
21941;SDS011;11135;54.192;15.670;2022-12-18T16:51:33;16.77;;;7.55;;
21941;SDS011;11135;54.192;15.670;2022-12-18T16:54:39;15.45;;;7.18;;
21941;SDS011;11135;54.192;15.670;2022-12-18T16:57:46;19.17;;;7.90;;
21941;SDS011;11135;54.192;15.670;2022-12-18T17:00:51;26.30;;;9.70;;
21941;SDS011;11135;54.192;15.670;2022-12-18T17:04:03;21.33;;;8.45;;
21941;SDS011;11135;54.192;15.670;2022-12-18T17:07:13;13.77;;;6.28;;
21941;SDS011;11135;54.192;15.670;2022-12-18T17:10:18;18.40;;;8.63;;
21941;SDS011;11135;54.192;15.670;2022-12-18T17:13:25;21.98;;;8.40;;
21941;SDS011;11135;54.192;15.670;2022-12-18T17:16:31;12.55;;;5.78;;
21941;SDS011;11135;54.192;15.670;2022-12-18T17:19:44;21.77;;;8.27;;
21941;SDS011;11135;54.192;15.670;2022-12-18T17:22:53;20.05;;;7.97;;
21941;SDS011;11135;54.192;15.670;2022-12-18T17:26:08;16.30;;;7.60;;
21941;SDS011;11135;54.192;15.670;2022-12-18T17:29:20;20.90;;;8.25;;
21941;SDS011;11135;54.192;15.670;2022-12-18T17:32:26;20.10;;;8.95;;
21941;SDS011;11135;54.192;15.670;2022-12-18T17:35:36;24.75;;;9.93;;
21941;SDS011;11135;54.192;15.670;2022-12-18T17:38:42;14.55;;;7.43;;
21941;SDS011;11135;54.192;15.670;2022-12-18T17:41:49;20.40;;;7.60;;
21941;SDS011;11135;54.192;15.670;2022-12-18T17:44:54;16.52;;;6.97;;
21941;SDS011;11135;54.192;15.670;2022-12-18T17:48:01;17.05;;;8.73;;
21941;SDS011;11135;54.192;15.670;2022-12-18T17:51:10;23.42;;;9.18;;
21941;SDS011;11135;54.192;15.670;2022-12-18T17:54:15;21.00;;;7.82;;
21941;SDS011;11135;54.192;15.670;2022-12-18T17:57:21;17.15;;;7.95;;
21941;SDS011;11135;54.192;15.670;2022-12-18T18:00:26;18.25;;;8.63;;
21941;SDS011;11135;54.192;15.670;2022-12-18T18:03:34;19.30;;;8.80;;
21941;SDS011;11135;54.192;15.670;2022-12-18T18:06:46;22.48;;;9.73;;
21941;SDS011;11135;54.192;15.670;2022-12-18T18:10:04;18.70;;;9.95;;
21941;SDS011;11135;54.192;15.670;2022-12-18T18:13:17;22.13;;;9.75;;
21941;SDS011;11135;54.192;15.670;2022-12-18T18:16:50;17.15;;;9.75;;
21941;SDS011;11135;54.192;15.670;2022-12-18T18:19:57;22.38;;;10.02;;
21941;SDS011;11135;54.192;15.670;2022-12-18T18:23:06;15.95;;;8.38;;
21941;SDS011;11135;54.192;15.670;2022-12-18T18:26:12;15.45;;;7.28;;
21941;SDS011;11135;54.192;15.670;2022-12-18T18:29:21;13.60;;;8.20;;
21941;SDS011;11135;54.192;15.670;2022-12-18T18:32:28;13.07;;;5.85;;
21941;SDS011;11135;54.192;15.670;2022-12-18T18:35:40;21.73;;;10.88;;
21941;SDS011;11135;54.192;15.670;2022-12-18T18:39:01;26.15;;;10.75;;
21941;SDS011;11135;54.192;15.670;2022-12-18T18:45:17;20.77;;;9.25;;